X  Cerrar Datos meteorológicos de aviación METAR     LEZL Sevilla Airport
Temperatura
81°F Temperatura
41°F Punto de rocío
24% Humedad



Viento
3 MPH
5 KM/H
1 M/S
3 NUDO



360°
N
Condiciones actuales

Despejado Despejado
Presión 1010.84 (hPa) - 29.85 (inHg)
Visibilidad 6 (milla) - 9.7 (km)
Aeropuerto
Código de aeropuerto LEZL

localidad: Sevilla Airport
Distancia: 41 (mi)

Metar:
LEZL 231930Z 36003KT 290V030 CAVOK 27/05 Q1011 NOSIG

Hora: 23-05-2024 21:30 CEST